Time;durP1;ratioP1;P1;durP2;ratioP2;P2;SDS_P1;SDS_P2;PMS_P1;PMS_P2;Temp;Humidity;BMP_temperature;BMP_pressure;BME280_temperature;BME280_humidity;BME280_pressure;Samples;Min_cycle;Max_cycle;Signal;HPM_P1;HPM_P2
2022/10/08 00:02:16;;;;;;;9.38;2.70;;;12.80;99.90;;;;;;5092850;28;20169;-80
2022/10/08 00:04:42;;;;;;;10.55;2.85;;;12.70;99.90;;;;;;5093059;28;20123;-80
2022/10/08 00:07:07;;;;;;;8.77;3.15;;;12.80;99.90;;;;;;5092476;28;20032;-80
2022/10/08 00:09:33;;;;;;;7.15;2.47;;;12.80;99.90;;;;;;5092631;28;20125;-80
2022/10/08 00:11:58;;;;;;;5.50;2.45;;;12.80;99.90;;;;;;5092735;28;20040;-80
2022/10/08 00:14:24;;;;;;;6.40;2.30;;;12.80;99.90;;;;;;5092260;28;20032;-79
2022/10/08 00:16:50;;;;;;;12.88;2.58;;;12.70;99.90;;;;;;5092607;28;20066;-79
2022/10/08 00:19:15;;;;;;;6.60;2.55;;;12.70;99.90;;;;;;5092363;28;20036;-80
2022/10/08 00:21:43;;;;;;;7.45;2.72;;;12.70;99.90;;;;;;5093260;28;20047;-79
2022/10/08 00:24:13;;;;;;;12.45;2.80;;;12.70;99.90;;;;;;5092041;28;20040;-80
2022/10/08 00:26:39;;;;;;;8.13;2.40;;;12.70;99.90;;;;;;5092443;28;20032;-80
2022/10/08 00:29:06;;;;;;;8.55;2.30;;;12.70;99.90;;;;;;5094446;28;20089;-80
2022/10/08 00:31:35;;;;;;;7.97;2.20;;;12.70;99.90;;;;;;5091713;28;20044;-79
2022/10/08 00:34:03;;;;;;;6.65;2.63;;;12.70;99.90;;;;;;5091401;28;20040;-79
2022/10/08 00:36:33;;;;;;;5.60;2.08;;;12.70;99.90;;;;;;5091708;28;20040;-79
2022/10/08 00:39:02;;;;;;;7.28;2.25;;;12.60;99.90;;;;;;5091908;28;20036;-79
2022/10/08 00:41:32;;;;;;;6.18;2.00;;;12.70;99.90;;;;;;5091624;28;20040;-79
2022/10/08 00:44:03;;;;;;;7.28;2.42;;;12.70;99.90;;;;;;5091552;28;20030;-79
2022/10/08 00:46:47;;;;;;;7.00;2.30;;;12.60;99.90;;;;;;5091531;28;20047;-79
2022/10/08 00:49:19;;;;;;;10.15;2.38;;;12.60;99.90;;;;;;5091574;28;20093;-78
2022/10/08 00:51:50;;;;;;;7.18;2.33;;;12.60;99.90;;;;;;5091087;28;20047;-78
2022/10/08 00:54:18;;;;;;;5.63;2.28;;;12.60;99.90;;;;;;5091507;28;20043;-79
2022/10/08 00:56:46;;;;;;;5.68;2.22;;;12.60;99.90;;;;;;5095631;28;20041;-79
2022/10/08 00:59:12;;;;;;;7.65;2.33;;;12.60;99.90;;;;;;5101496;28;20040;-79
2022/10/08 01:01:41;;;;;;;9.30;2.40;;;12.60;99.90;;;;;;5074453;28;20036;-79
2022/10/08 01:04:08;;;;;;;5.32;1.73;;;12.60;99.90;;;;;;5091251;28;20494;-78
2022/10/08 01:06:42;;;;;;;5.40;2.00;;;12.60;99.90;;;;;;5090947;28;20048;-80
2022/10/08 01:09:37;;;;;;;5.03;1.70;;;12.60;99.90;;;;;;5092326;28;20570;-79
2022/10/08 01:12:26;;;;;;;5.65;1.67;;;12.60;99.90;;;;;;5091938;28;20047;-80
2022/10/08 01:15:05;;;;;;;7.32;1.98;;;12.50;99.90;;;;;;5092211;28;20040;-79
2022/10/08 01:17:43;;;;;;;5.82;1.50;;;12.50;99.90;;;;;;5091216;28;20097;-79
2022/10/08 01:20:24;;;;;;;4.70;1.40;;;12.50;99.90;;;;;;5091235;28;20422;-79
2022/10/08 01:23:10;;;;;;;3.80;1.73;;;12.50;99.90;;;;;;5090854;28;20521;-79
2022/10/08 01:25:44;;;;;;;4.78;1.42;;;12.50;99.90;;;;;;5090787;28;20098;-79
2022/10/08 01:28:22;;;;;;;6.15;1.70;;;12.50;99.90;;;;;;5090919;28;20066;-78
2022/10/08 01:31:17;;;;;;;6.10;1.75;;;12.50;99.90;;;;;;5073993;28;20043;-78
2022/10/08 01:34:00;;;;;;;5.28;1.50;;;12.50;99.90;;;;;;5090465;28;20055;-79
2022/10/08 01:36:35;;;;;;;6.88;1.70;;;12.50;99.90;;;;;;5090770;28;20071;-78
2022/10/08 01:39:06;;;;;;;5.60;1.60;;;12.40;99.90;;;;;;5090616;28;20043;-79
2022/10/08 01:41:32;;;;;;;4.68;1.77;;;12.40;99.90;;;;;;5091004;28;20425;-79
2022/10/08 01:44:04;;;;;;;6.63;1.65;;;12.30;99.90;;;;;;5090971;28;20036;-78
2022/10/08 01:46:32;;;;;;;3.65;1.45;;;12.30;99.90;;;;;;5090810;28;20036;-78
2022/10/08 01:49:06;;;;;;;6.95;1.85;;;12.20;99.90;;;;;;5090342;28;20558;-78
2022/10/08 01:51:37;;;;;;;5.53;1.90;;;12.20;99.90;;;;;;5090589;28;20105;-78
2022/10/08 01:54:06;;;;;;;5.38;1.90;;;12.10;99.90;;;;;;5090774;28;20040;-78
2022/10/08 01:56:35;;;;;;;6.63;1.67;;;12.10;99.90;;;;;;5093450;28;20044;-78
2022/10/08 01:59:18;;;;;;;3.08;1.48;;;12.00;99.90;;;;;;5085208;28;20032;-79
2022/10/08 02:02:08;;;;;;;5.18;1.50;;;12.00;99.90;;;;;;5075710;28;20040;-78
2022/10/08 02:04:34;;;;;;;5.22;1.90;;;11.90;99.90;;;;;;5074104;28;20052;-79
2022/10/08 02:07:09;;;;;;;5.10;1.45;;;11.90;99.90;;;;;;5090871;28;20081;-79
2022/10/08 02:09:41;;;;;;;7.10;1.55;;;11.90;99.90;;;;;;5090891;28;20042;-79
2022/10/08 02:12:08;;;;;;;5.63;1.80;;;11.80;99.90;;;;;;5090678;28;20124;-79
2022/10/08 02:14:38;;;;;;;5.65;1.58;;;11.80;99.90;;;;;;5090701;28;20044;-79
2022/10/08 02:17:34;;;;;;;6.47;1.90;;;11.80;99.90;;;;;;5090548;28;20493;-79
2022/10/08 02:20:13;;;;;;;3.50;1.50;;;11.80;99.90;;;;;;5094209;28;20047;-78
2022/10/08 02:23:00;;;;;;;5.97;1.98;;;11.70;99.90;;;;;;5077499;28;20525;-79
2022/10/08 02:25:45;;;;;;;6.00;1.70;;;11.70;99.90;;;;;;5094662;28;20501;-78
2022/10/08 02:28:16;;;;;;;5.57;1.40;;;11.70;99.90;;;;;;5094697;28;20401;-79
2022/10/08 02:30:48;;;;;;;6.05;1.40;;;11.60;99.90;;;;;;5094610;28;20047;-79
2022/10/08 02:33:25;;;;;;;4.97;1.52;;;11.60;99.90;;;;;;5094343;28;20040;-79
2022/10/08 02:35:54;;;;;;;3.55;1.50;;;11.60;99.90;;;;;;5094515;28;20032;-79
2022/10/08 02:38:25;;;;;;;4.05;1.75;;;11.60;99.90;;;;;;5094465;28;20451;-79
2022/10/08 02:40:54;;;;;;;5.72;2.05;;;11.60;99.90;;;;;;5094162;28;20067;-79
2022/10/08 02:43:25;;;;;;;6.78;1.70;;;11.50;99.90;;;;;;5094007;28;20057;-79
2022/10/08 02:46:08;;;;;;;5.90;1.95;;;11.50;99.90;;;;;;5093761;28;20047;-79
2022/10/08 02:48:35;;;;;;;8.45;1.80;;;11.40;99.90;;;;;;5093947;28;20039;-79
2022/10/08 02:51:06;;;;;;;4.85;1.90;;;11.40;99.90;;;;;;5093551;28;20111;-79
2022/10/08 02:53:38;;;;;;;5.28;1.65;;;11.40;99.90;;;;;;5093703;28;20134;-79
2022/10/08 02:56:23;;;;;;;5.43;1.63;;;11.40;99.90;;;;;;5076874;28;20039;-79
2022/10/08 02:58:48;;;;;;;3.25;1.65;;;11.40;99.90;;;;;;5093953;28;20078;-79
2022/10/08 03:01:36;;;;;;;6.00;2.00;;;11.40;99.90;;;;;;5093375;28;20117;-79
2022/10/08 03:04:18;;;;;;;6.28;1.80;;;11.30;99.90;;;;;;5093924;28;20497;-80
2022/10/08 03:06:45;;;;;;;7.80;1.85;;;11.30;99.90;;;;;;5093597;28;20032;-79
2022/10/08 03:09:13;;;;;;;5.35;1.90;;;11.30;99.90;;;;;;5093594;28;20071;-79
2022/10/08 03:11:39;;;;;;;4.82;1.90;;;11.30;99.90;;;;;;5093235;28;20093;-79
2022/10/08 03:14:08;;;;;;;6.63;2.30;;;11.20;99.90;;;;;;5093618;28;20036;-79
2022/10/08 03:16:40;;;;;;;5.65;1.90;;;11.30;99.90;;;;;;5093132;28;20516;-79
2022/10/08 03:19:09;;;;;;;8.73;2.40;;;11.30;99.90;;;;;;5093437;28;20036;-79
2022/10/08 03:21:38;;;;;;;7.28;2.50;;;11.30;99.90;;;;;;5093129;28;20040;-79
2022/10/08 03:24:04;;;;;;;5.88;2.10;;;11.30;99.90;;;;;;5076301;28;20089;-79
2022/10/08 03:26:30;;;;;;;5.30;2.17;;;11.40;99.90;;;;;;5093622;28;20417;-79
2022/10/08 03:28:55;;;;;;;7.07;2.33;;;11.40;99.90;;;;;;5092483;28;20114;-80
2022/10/08 03:31:21;;;;;;;6.13;2.30;;;11.40;99.90;;;;;;5092938;28;20032;-80
2022/10/08 03:33:51;;;;;;;6.05;2.53;;;11.50;99.90;;;;;;5076176;28;20115;-80
2022/10/08 03:36:17;;;;;;;8.02;2.90;;;11.50;99.90;;;;;;5093403;28;20044;-80
2022/10/08 03:38:42;;;;;;;6.13;2.50;;;11.50;99.90;;;;;;5093085;28;20514;-79
2022/10/08 03:41:08;;;;;;;8.70;2.88;;;11.50;99.90;;;;;;5092674;28;20072;-80
2022/10/08 03:43:34;;;;;;;8.90;2.85;;;11.60;99.90;;;;;;5092872;28;20044;-79
2022/10/08 03:46:00;;;;;;;15.90;2.95;;;11.50;99.90;;;;;;5092655;28;20032;-79
2022/10/08 03:48:26;;;;;;;9.80;3.05;;;11.50;99.90;;;;;;5093113;28;20043;-79
2022/10/08 03:50:56;;;;;;;5.82;2.47;;;11.50;99.90;;;;;;5092823;28;20082;-80
2022/10/08 03:53:23;;;;;;;7.15;2.78;;;11.50;99.90;;;;;;5093053;28;20047;-79
2022/10/08 03:55:48;;;;;;;6.13;2.40;;;11.50;99.90;;;;;;5093365;28;20401;-79
2022/10/08 03:58:14;;;;;;;10.45;2.50;;;11.50;99.90;;;;;;5107587;28;20069;-79
2022/10/08 04:00:40;;;;;;;5.43;2.33;;;11.40;99.90;;;;;;5098367;28;20031;-79
2022/10/08 04:03:06;;;;;;;5.68;2.35;;;11.40;99.90;;;;;;5098250;28;20401;-79
2022/10/08 04:05:32;;;;;;;9.35;2.75;;;11.40;99.90;;;;;;5093111;28;20040;-79
2022/10/08 04:07:57;;;;;;;5.35;2.33;;;11.30;99.90;;;;;;5092954;28;20164;-79
2022/10/08 04:10:23;;;;;;;5.05;2.22;;;11.30;99.90;;;;;;5092809;28;20447;-79
2022/10/08 04:12:49;;;;;;;8.02;2.55;;;11.30;99.90;;;;;;5092301;28;20439;-79
2022/10/08 04:15:14;;;;;;;7.90;2.70;;;11.20;99.90;;;;;;5092837;28;20470;-79
2022/10/08 04:17:40;;;;;;;5.82;2.20;;;11.20;99.90;;;;;;5075951;28;20123;-79
2022/10/08 04:20:06;;;;;;;7.68;2.40;;;11.10;99.90;;;;;;5092835;28;20036;-79
2022/10/08 04:22:32;;;;;;;7.47;2.38;;;11.10;99.90;;;;;;5092657;28;20032;-79
2022/10/08 04:24:57;;;;;;;6.68;2.38;;;11.10;99.90;;;;;;5093078;28;20036;-78
2022/10/08 04:27:23;;;;;;;4.75;2.20;;;11.10;99.90;;;;;;5092684;28;20046;-79
2022/10/08 04:29:48;;;;;;;6.13;2.20;;;11.00;99.90;;;;;;5092641;28;20044;-79
2022/10/08 04:32:14;;;;;;;5.03;1.90;;;11.00;99.90;;;;;;5092014;28;20040;-79
2022/10/08 04:34:40;;;;;;;9.65;2.63;;;11.00;99.90;;;;;;5092720;28;20554;-79
2022/10/08 04:37:05;;;;;;;7.03;2.15;;;10.90;99.90;;;;;;5092374;28;20143;-79
2022/10/08 04:39:31;;;;;;;8.23;2.20;;;10.90;99.90;;;;;;5092198;28;20498;-79
2022/10/08 04:41:57;;;;;;;8.75;2.10;;;10.90;99.90;;;;;;5090908;28;20052;-79
2022/10/08 04:44:22;;;;;;;9.63;2.38;;;10.80;99.90;;;;;;5092110;28;20032;-79
2022/10/08 04:46:48;;;;;;;8.30;2.72;;;10.80;99.90;;;;;;5092046;28;20078;-78
2022/10/08 04:49:13;;;;;;;9.95;2.25;;;10.80;99.90;;;;;;5091795;28;20044;-79
2022/10/08 04:51:39;;;;;;;9.63;2.50;;;10.80;99.90;;;;;;5092052;28;20417;-79
2022/10/08 04:54:04;;;;;;;7.22;2.28;;;10.80;99.90;;;;;;5091989;28;20055;-79
2022/10/08 04:56:31;;;;;;;7.45;2.72;;;10.70;99.90;;;;;;5093975;28;20524;-78
2022/10/08 04:58:58;;;;;;;8.88;2.58;;;10.70;99.90;;;;;;5086647;28;20447;-78
2022/10/08 05:01:25;;;;;;;8.38;2.38;;;10.70;99.90;;;;;;5074312;28;20032;-79
2022/10/08 05:03:53;;;;;;;9.93;2.40;;;10.70;99.90;;;;;;5091377;28;20439;-78
2022/10/08 05:06:21;;;;;;;6.28;2.15;;;10.60;99.90;;;;;;5091403;28;20100;-78
2022/10/08 05:08:48;;;;;;;11.90;2.40;;;10.60;99.90;;;;;;5074948;28;20028;-79
2022/10/08 05:11:14;;;;;;;7.18;2.47;;;10.60;99.90;;;;;;5091440;28;20034;-79
2022/10/08 05:13:40;;;;;;;7.10;2.45;;;10.60;99.90;;;;;;5090727;28;20245;-79
2022/10/08 05:16:12;;;;;;;9.93;2.30;;;10.60;99.90;;;;;;5090926;28;20058;-79
2022/10/08 05:18:39;;;;;;;8.85;2.65;;;10.50;99.90;;;;;;5091037;28;20493;-79
2022/10/08 05:21:07;;;;;;;5.57;2.00;;;10.50;99.90;;;;;;5090674;28;20050;-79
2022/10/08 05:23:34;;;;;;;7.00;2.28;;;10.50;99.90;;;;;;5074022;28;20047;-80
2022/10/08 05:26:01;;;;;;;11.05;2.30;;;10.50;99.90;;;;;;5091422;28;20123;-79
2022/10/08 05:28:27;;;;;;;10.18;2.40;;;10.40;99.90;;;;;;5091163;28;20401;-79
2022/10/08 05:30:59;;;;;;;7.22;2.20;;;10.50;99.90;;;;;;5090591;28;20043;-80
2022/10/08 05:33:24;;;;;;;8.25;2.17;;;10.40;99.90;;;;;;5073874;28;20497;-79
2022/10/08 05:35:50;;;;;;;11.10;2.47;;;10.40;99.90;;;;;;5090632;28;20032;-79
2022/10/08 05:38:15;;;;;;;7.60;2.20;;;10.40;99.90;;;;;;5090783;28;20040;-79
2022/10/08 05:40:41;;;;;;;6.18;2.00;;;10.30;99.90;;;;;;5090530;28;20556;-79
2022/10/08 05:43:06;;;;;;;9.32;2.40;;;10.30;99.90;;;;;;5090916;28;20085;-79
2022/10/08 05:45:32;;;;;;;10.45;2.53;;;10.30;99.90;;;;;;5090609;28;20081;-79
2022/10/08 05:47:57;;;;;;;9.75;2.47;;;10.30;99.90;;;;;;5090897;28;20112;-80
2022/10/08 05:50:23;;;;;;;9.43;2.45;;;10.30;99.90;;;;;;5090519;28;20036;-79
2022/10/08 05:52:48;;;;;;;8.93;2.38;;;10.30;99.90;;;;;;5090003;28;20047;-79
2022/10/08 05:55:14;;;;;;;6.88;2.22;;;10.30;99.90;;;;;;5090441;28;20040;-79
2022/10/08 05:57:39;;;;;;;10.48;2.80;;;10.30;99.90;;;;;;5102706;28;20123;-79
2022/10/08 06:00:05;;;;;;;7.18;2.15;;;10.30;99.90;;;;;;5092513;28;20047;-79
2022/10/08 06:02:31;;;;;;;12.77;2.63;;;10.30;99.90;;;;;;5090617;28;20493;-79
2022/10/08 06:04:56;;;;;;;6.38;2.10;;;10.30;99.90;;;;;;5090378;28;20131;-79
2022/10/08 06:07:22;;;;;;;8.30;2.08;;;10.30;99.90;;;;;;5090254;28;20050;-79
2022/10/08 06:09:47;;;;;;;6.00;1.77;;;10.30;99.90;;;;;;5090245;28;20074;-79
2022/10/08 06:12:13;;;;;;;9.98;2.40;;;10.30;99.90;;;;;;5089853;28;20585;-79
2022/10/08 06:14:39;;;;;;;7.75;2.22;;;10.40;99.90;;;;;;5090197;28;20044;-79
2022/10/08 06:17:05;;;;;;;12.23;2.40;;;10.30;99.90;;;;;;5090230;28;20502;-79
2022/10/08 06:19:32;;;;;;;10.90;2.08;;;10.40;99.90;;;;;;5090462;28;20101;-79
2022/10/08 06:21:58;;;;;;;7.88;2.03;;;10.40;99.90;;;;;;5090070;28;20411;-79
2022/10/08 06:24:23;;;;;;;7.95;2.17;;;10.50;99.90;;;;;;5090159;28;20044;-79
2022/10/08 06:26:49;;;;;;;10.23;2.65;;;10.50;99.90;;;;;;5090333;28;20055;-79
2022/10/08 06:29:16;;;;;;;8.23;2.00;;;10.50;99.90;;;;;;5090092;28;20545;-80
2022/10/08 06:31:42;;;;;;;8.07;2.17;;;10.60;99.90;;;;;;5073098;28;20036;-79
2022/10/08 06:34:08;;;;;;;11.43;1.95;;;10.70;99.90;;;;;;5073156;28;20040;-80
2022/10/08 06:36:36;;;;;;;10.50;1.98;;;10.80;99.90;;;;;;5090123;28;20386;-79
2022/10/08 06:39:09;;;;;;;9.93;2.17;;;10.80;99.90;;;;;;5090030;28;20044;-80
2022/10/08 06:41:34;;;;;;;11.27;1.90;;;10.90;99.90;;;;;;5090012;28;20043;-80
2022/10/08 06:44:05;;;;;;;9.82;2.00;;;11.00;99.90;;;;;;5090294;28;20032;-80
2022/10/08 06:46:31;;;;;;;10.32;2.45;;;11.00;99.90;;;;;;5073962;28;20032;-80
2022/10/08 06:48:57;;;;;;;7.38;1.83;;;11.00;99.90;;;;;;5090339;28;20043;-79
2022/10/08 06:51:23;;;;;;;12.52;2.33;;;11.00;99.90;;;;;;5089545;28;20036;-78
2022/10/08 06:53:55;;;;;;;8.48;2.30;;;11.10;99.90;;;;;;5090086;28;20090;-78
2022/10/08 06:56:21;;;;;;;12.18;2.30;;;11.20;99.90;;;;;;5090846;28;20055;-78
2022/10/08 06:58:47;;;;;;;8.70;1.90;;;11.20;99.90;;;;;;5103051;28;20040;-77
2022/10/08 07:01:21;;;;;;;9.95;2.00;;;11.10;99.90;;;;;;5089558;28;20116;-78
2022/10/08 07:03:51;;;;;;;8.50;1.88;;;11.10;99.90;;;;;;5089780;28;20036;-78
2022/10/08 07:06:17;;;;;;;12.07;2.67;;;11.10;99.90;;;;;;5093379;28;20086;-78
2022/10/08 07:08:43;;;;;;;11.27;1.98;;;11.10;99.90;;;;;;5093178;28;20040;-78
2022/10/08 07:11:15;;;;;;;9.07;1.48;;;11.10;99.90;;;;;;5093434;28;20460;-78
2022/10/08 07:13:41;;;;;;;5.05;1.50;;;11.20;99.90;;;;;;5093044;28;20085;-78
2022/10/08 07:16:08;;;;;;;10.25;1.80;;;11.20;99.90;;;;;;5093169;28;20123;-78
2022/10/08 07:18:35;;;;;;;9.65;1.98;;;11.30;99.90;;;;;;5093340;28;20399;-78
2022/10/08 07:21:01;;;;;;;8.90;1.80;;;11.40;99.90;;;;;;5093080;28;20107;-78
2022/10/08 07:23:27;;;;;;;13.80;1.92;;;11.40;99.90;;;;;;5092961;28;20051;-78
2022/10/08 07:25:55;;;;;;;9.05;1.83;;;11.40;99.90;;;;;;5093037;28;20047;-78
2022/10/08 07:28:21;;;;;;;7.28;1.90;;;11.40;99.90;;;;;;5092970;28;20044;-78
2022/10/08 07:30:47;;;;;;;8.27;1.52;;;11.40;99.90;;;;;;5093240;28;20054;-78
2022/10/08 07:33:12;;;;;;;8.70;1.80;;;11.40;99.90;;;;;;5092664;28;20036;-78
2022/10/08 07:35:37;;;;;;;9.63;2.67;;;11.50;99.90;;;;;;5093110;28;20036;-78
2022/10/08 07:38:03;;;;;;;10.40;2.20;;;11.60;99.90;;;;;;5093241;28;20047;-78
2022/10/08 07:40:28;;;;;;;9.57;2.30;;;11.70;99.90;;;;;;5092771;28;20044;-79
2022/10/08 07:42:54;;;;;;;12.32;2.15;;;11.80;99.90;;;;;;5092484;28;20040;-79
2022/10/08 07:45:19;;;;;;;7.53;2.00;;;11.80;99.90;;;;;;5092639;28;20048;-79
2022/10/08 07:47:45;;;;;;;9.40;1.70;;;11.90;99.90;;;;;;5092812;28;20042;-79
2022/10/08 07:50:11;;;;;;;8.90;1.70;;;11.90;99.90;;;;;;5092661;28;20036;-78
2022/10/08 07:52:36;;;;;;;8.95;1.88;;;12.00;99.90;;;;;;5075400;28;20090;-78
2022/10/08 07:55:02;;;;;;;11.48;2.10;;;12.20;99.90;;;;;;5092775;28;20039;-78
2022/10/08 07:57:27;;;;;;;7.53;1.63;;;12.30;99.90;;;;;;5102721;28;20036;-78
2022/10/08 07:59:53;;;;;;;6.57;2.00;;;12.30;99.90;;;;;;5096149;28;20192;-78
2022/10/08 08:02:18;;;;;;;8.07;2.30;;;12.40;99.90;;;;;;5092618;28;20128;-79
2022/10/08 08:04:44;;;;;;;6.03;1.45;;;12.40;99.90;;;;;;5092297;28;20501;-78
2022/10/08 08:07:09;;;;;;;10.68;1.90;;;12.60;99.90;;;;;;5092236;28;20461;-78
2022/10/08 08:09:36;;;;;;;6.88;1.50;;;12.60;99.90;;;;;;5092193;28;20039;-78
2022/10/08 08:12:01;;;;;;;6.47;1.75;;;12.70;99.90;;;;;;5091809;28;20135;-79
2022/10/08 08:14:27;;;;;;;7.50;1.60;;;12.80;99.90;;;;;;5092003;28;20036;-78
2022/10/08 08:16:52;;;;;;;8.57;2.40;;;12.80;99.90;;;;;;5075096;28;20032;-78
2022/10/08 08:19:18;;;;;;;8.38;1.60;;;12.90;99.90;;;;;;5091996;28;20043;-78
2022/10/08 08:21:43;;;;;;;7.05;1.83;;;12.90;99.90;;;;;;5091712;28;20032;-78
2022/10/08 08:24:11;;;;;;;8.43;2.10;;;13.00;99.90;;;;;;5091723;28;20044;-78
2022/10/08 08:26:38;;;;;;;10.10;2.10;;;13.10;99.90;;;;;;5091837;28;20036;-78
2022/10/08 08:29:07;;;;;;;13.80;1.73;;;13.10;99.90;;;;;;5091911;28;20036;-78
2022/10/08 08:31:35;;;;;;;7.55;1.92;;;13.20;99.90;;;;;;5074560;28;20059;-78
2022/10/08 08:34:05;;;;;;;10.82;2.15;;;13.20;99.90;;;;;;5091531;28;20036;-78
2022/10/08 08:36:43;;;;;;;9.18;1.60;;;13.30;99.90;;;;;;5091648;28;20047;-78
2022/10/08 08:39:23;;;;;;;11.05;1.95;;;13.40;99.90;;;;;;5091577;28;20039;-78
2022/10/08 08:42:23;;;;;;;9.07;2.03;;;13.40;99.90;;;;;;5091490;28;20044;-78
2022/10/08 08:44:59;;;;;;;11.38;1.50;;;13.50;99.90;;;;;;5091799;28;20465;-77
2022/10/08 08:47:32;;;;;;;9.45;1.40;;;13.50;99.90;;;;;;5091461;28;20055;-78
2022/10/08 08:50:05;;;;;;;4.22;1.27;;;13.50;99.90;;;;;;5091643;28;20040;-78
2022/10/08 08:52:37;;;;;;;11.68;1.50;;;13.50;99.90;;;;;;5074212;28;20074;-78
2022/10/08 08:55:13;;;;;;;5.97;1.42;;;13.60;99.90;;;;;;5091514;28;20027;-78
2022/10/08 08:57:58;;;;;;;7.47;1.30;;;13.60;99.90;;;;;;5103149;28;20048;-78
2022/10/08 09:00:32;;;;;;;8.20;1.80;;;13.60;99.90;;;;;;5091669;28;20416;-77
2022/10/08 09:03:02;;;;;;;7.55;1.55;;;13.60;99.90;;;;;;5092297;28;20052;-78
2022/10/08 09:05:32;;;;;;;8.73;1.70;;;13.70;99.90;;;;;;5091591;28;20035;-78
2022/10/08 09:08:16;;;;;;;8.00;1.58;;;13.70;99.90;;;;;;5091310;28;20119;-79
2022/10/08 09:10:54;;;;;;;10.05;1.40;;;13.70;99.90;;;;;;5091583;28;20071;-78
2022/10/08 09:13:24;;;;;;;10.45;1.40;;;13.80;99.90;;;;;;5091415;28;20597;-79
2022/10/08 09:15:51;;;;;;;5.75;1.40;;;13.90;99.90;;;;;;5091874;28;20040;-79
2022/10/08 09:18:17;;;;;;;6.43;1.02;;;13.90;99.90;;;;;;5092090;28;20044;-79
2022/10/08 09:20:43;;;;;;;5.85;1.23;;;14.00;99.90;;;;;;5074400;28;20036;-79
2022/10/08 09:23:16;;;;;;;7.95;1.30;;;14.10;99.90;;;;;;5091243;28;20119;-79
2022/10/08 09:25:47;;;;;;;3.85;1.00;;;14.20;99.90;;;;;;5091717;28;20158;-79
2022/10/08 09:28:36;;;;;;;15.98;1.65;;;14.30;99.90;;;;;;5091352;28;20116;-79
2022/10/08 09:31:19;;;;;;;5.80;1.30;;;14.30;99.90;;;;;;5074327;28;20047;-84
2022/10/08 09:33:57;;;;;;;7.65;1.30;;;14.30;99.90;;;;;;5091510;28;20078;-79
2022/10/08 09:36:46;;;;;;;8.02;1.30;;;14.10;99.90;;;;;;5075035;28;20075;-80
2022/10/08 09:39:32;;;;;;;8.10;1.38;;;14.10;99.90;;;;;;5091602;28;20493;-80
2022/10/08 09:42:08;;;;;;;8.90;1.17;;;14.10;99.90;;;;;;5074072;28;20122;-80
2022/10/08 09:44:44;;;;;;;8.18;1.15;;;14.10;99.90;;;;;;5090760;28;20143;-80
2022/10/08 09:47:12;;;;;;;6.00;1.33;;;14.10;99.90;;;;;;5091369;28;20066;-79
2022/10/08 09:49:38;;;;;;;6.80;1.67;;;14.30;99.90;;;;;;5091289;28;20047;-82
2022/10/08 09:52:25;;;;;;;8.95;1.70;;;14.40;99.90;;;;;;5090966;28;20468;-80
2022/10/08 09:55:22;;;;;;;8.80;1.38;;;14.30;99.90;;;;;;5075050;28;20081;-80
2022/10/08 09:57:52;;;;;;;10.52;1.40;;;14.40;99.90;;;;;;5105288;28;20382;-80
2022/10/08 10:00:36;;;;;;;6.97;1.20;;;14.40;99.90;;;;;;5091899;28;20370;-79
2022/10/08 10:03:05;;;;;;;8.23;1.20;;;14.40;99.90;;;;;;5091731;28;20475;-80
2022/10/08 10:05:33;;;;;;;6.35;1.17;;;14.40;99.90;;;;;;5091345;28;20089;-79
2022/10/08 10:07:59;;;;;;;9.23;1.80;;;14.40;99.90;;;;;;5091555;28;20417;-80
2022/10/08 10:10:29;;;;;;;8.55;1.40;;;14.50;99.90;;;;;;5091309;28;20035;-81
2022/10/08 10:13:10;;;;;;;9.57;1.42;;;14.60;99.90;;;;;;5090981;28;20044;-80
2022/10/08 10:16:08;;;;;;;8.40;1.55;;;14.60;99.90;;;;;;5091280;28;20039;-78
2022/10/08 10:18:50;;;;;;;7.15;1.27;;;14.80;99.90;;;;;;5086694;28;20054;-79
2022/10/08 10:21:23;;;;;;;9.82;1.40;;;14.80;99.90;;;;;;5091108;28;20036;-80
2022/10/08 10:24:04;;;;;;;8.13;1.50;;;14.90;99.90;;;;;;5091539;28;20370;-80
2022/10/08 10:26:35;;;;;;;8.25;1.20;;;15.00;99.90;;;;;;5091543;28;20046;-79
2022/10/08 10:29:08;;;;;;;10.45;1.45;;;15.00;99.90;;;;;;5091644;28;20122;-80
2022/10/08 10:31:38;;;;;;;9.53;1.80;;;15.00;99.90;;;;;;5091449;28;20050;-80
2022/10/08 10:34:30;;;;;;;9.38;1.42;;;15.20;99.90;;;;;;5091327;28;20051;-82
2022/10/08 10:37:03;;;;;;;8.13;1.48;;;15.30;99.90;;;;;;5091618;28;20054;-79
2022/10/08 10:39:43;;;;;;;6.47;1.30;;;15.40;99.90;;;;;;5092563;28;20043;-80
2022/10/08 10:42:22;;;;;;;9.45;1.60;;;15.30;99.90;;;;;;5095022;28;20278;-79
2022/10/08 10:44:59;;;;;;;6.63;1.40;;;15.20;99.90;;;;;;5078041;28;20059;-80
2022/10/08 10:47:31;;;;;;;6.40;1.25;;;15.20;99.90;;;;;;5095043;28;20035;-80
2022/10/08 10:49:58;;;;;;;7.55;1.25;;;15.20;99.90;;;;;;5078417;28;20040;-81
2022/10/08 10:53:06;;;;;;;7.28;1.10;;;15.30;99.90;;;;;;5094385;28;20036;-81
2022/10/08 10:56:00;;;;;;;8.07;1.48;;;15.40;99.90;;;;;;5095160;28;20546;-80
2022/10/08 10:58:59;;;;;;;7.82;1.35;;;15.30;99.90;;;;;;5113040;28;20556;-80
2022/10/08 11:01:50;;;;;;;8.50;1.02;;;15.20;99.90;;;;;;5099850;28;20511;-79
2022/10/08 11:04:35;;;;;;;5.47;1.50;;;15.00;99.90;;;;;;5095011;28;20051;-82
2022/10/08 11:07:22;;;;;;;7.53;1.20;;;14.80;99.90;;;;;;5077504;28;20032;-82
2022/10/08 11:10:01;;;;;;;8.45;1.10;;;14.90;99.90;;;;;;5094412;28;20066;-82
2022/10/08 11:12:45;;;;;;;5.65;1.00;;;15.20;99.90;;;;;;5094510;28;20401;-81
2022/10/08 11:15:16;;;;;;;;;;;15.30;99.90;;;;;;5094614;28;20036;-80
2022/10/08 11:18:00;;;;;;;6.93;1.30;;;15.50;99.90;;;;;;5094257;28;19916;-79
2022/10/08 11:20:56;;;;;;;7.28;1.17;;;15.60;99.90;;;;;;5094603;28;20077;-81
2022/10/08 11:23:44;;;;;;;5.00;1.05;;;15.90;99.90;;;;;;5077446;28;20040;-81
2022/10/08 11:26:32;;;;;;;5.47;1.25;;;16.20;99.90;;;;;;5094350;28;20048;-81
2022/10/08 11:29:22;;;;;;;8.30;1.63;;;16.50;99.90;;;;;;5085798;28;20039;-82
2022/10/08 11:31:50;;;;;;;6.53;1.48;;;16.70;99.90;;;;;;5093593;28;20817;-82
2022/10/08 11:34:25;;;;;;;6.88;1.40;;;16.70;99.90;;;;;;5077251;28;20447;-81
2022/10/08 11:37:24;;;;;;;7.80;1.30;;;16.80;99.90;;;;;;5094059;28;20044;-81
2022/10/08 11:40:17;;;;;;;8.52;1.50;;;16.50;99.90;;;;;;5094047;28;20413;-82
2022/10/08 11:43:01;;;;;;;6.07;1.05;;;16.30;99.90;;;;;;5093593;28;20036;-82
2022/10/08 11:45:41;;;;;;;8.23;1.67;;;16.50;99.90;;;;;;5094236;28;20075;-83
2022/10/08 11:48:30;;;;;;;4.40;1.02;;;16.60;99.90;;;;;;5095612;28;20040;-81
2022/10/08 11:51:17;;;;;;;5.35;0.75;;;16.60;99.90;;;;;;5093175;28;20040;-81
2022/10/08 11:54:04;;;;;;;3.03;0.80;;;16.30;99.90;;;;;;5093903;28;20036;-80
2022/10/08 11:56:31;;;;;;;3.42;0.80;;;16.10;99.90;;;;;;5096004;28;20466;-80
2022/10/08 11:59:05;;;;;;;5.47;1.10;;;15.80;99.90;;;;;;5106467;28;20031;-82
2022/10/08 12:01:31;;;;;;;6.15;1.08;;;15.60;99.90;;;;;;5093708;28;20118;-81
2022/10/08 12:04:18;;;;;;;5.68;1.20;;;15.10;99.90;;;;;;5095525;28;20123;-80
2022/10/08 12:06:46;;;;;;;9.68;1.30;;;14.90;99.90;;;;;;5093503;28;20047;-81
2022/10/08 12:09:23;;;;;;;7.63;1.60;;;14.70;99.90;;;;;;5093807;28;20119;-81
2022/10/08 12:11:51;;;;;;;9.40;1.45;;;14.60;99.90;;;;;;5092926;28;20073;-81
2022/10/08 12:14:17;;;;;;;7.32;1.77;;;14.50;99.90;;;;;;5076106;28;20032;-82
2022/10/08 12:16:54;;;;;;;7.70;1.58;;;14.40;99.90;;;;;;5093056;28;20120;-80
2022/10/08 12:19:32;;;;;;;8.40;1.65;;;14.30;99.90;;;;;;5101805;28;20039;-81
2022/10/08 12:22:13;;;;;;;7.03;1.33;;;14.30;99.90;;;;;;5097104;28;20039;-81
2022/10/08 12:24:39;;;;;;;8.90;1.50;;;14.30;99.90;;;;;;5093292;28;20498;-81
2022/10/08 12:27:17;;;;;;;6.57;1.38;;;14.20;99.90;;;;;;5076542;28;20050;-81
2022/10/08 12:29:59;;;;;;;9.02;1.13;;;14.20;99.90;;;;;;5077076;28;20455;-81
2022/10/08 12:32:50;;;;;;;10.10;1.38;;;14.30;99.90;;;;;;5092646;28;20040;-83
2022/10/08 12:35:28;;;;;;;10.57;1.73;;;14.40;99.90;;;;;;5093087;28;20497;-81
2022/10/08 12:38:14;;;;;;;9.27;1.50;;;14.50;99.90;;;;;;5093362;28;20063;-81
2022/10/08 12:40:56;;;;;;;7.85;1.70;;;14.60;99.90;;;;;;5092698;28;20049;-80
2022/10/08 12:43:35;;;;;;;10.88;1.95;;;14.60;99.90;;;;;;5092617;28;20044;-80
2022/10/08 12:46:33;;;;;;;9.75;1.70;;;14.60;99.90;;;;;;5092607;28;20048;-81
2022/10/08 12:49:13;;;;;;;7.32;1.40;;;14.70;99.90;;;;;;5075775;28;20096;-81
2022/10/08 12:51:58;;;;;;;10.88;1.60;;;14.80;99.90;;;;;;5091961;28;20047;-82
2022/10/08 12:54:26;;;;;;;9.00;1.67;;;14.90;99.90;;;;;;5092160;28;20044;-81
2022/10/08 12:56:52;;;;;;;5.85;1.40;;;15.10;99.90;;;;;;5097539;28;20028;-81
2022/10/08 12:59:25;;;;;;;4.30;0.80;;;15.30;99.90;;;;;;5101037;28;20043;-83
2022/10/08 13:01:51;;;;;;;2.63;0.70;;;15.10;99.90;;;;;;5090790;28;20036;-84
2022/10/08 13:04:23;;;;;;;4.47;0.82;;;14.80;99.90;;;;;;5075193;28;20115;-80
2022/10/08 13:06:53;;;;;;;2.45;0.47;;;14.50;99.90;;;;;;5092448;28;20501;-80
2022/10/08 13:09:25;;;;;;;5.45;0.68;;;14.20;99.90;;;;;;5075430;28;20125;-80
2022/10/08 13:11:55;;;;;;;4.70;0.85;;;14.10;99.90;;;;;;5091598;28;20047;-82